sensor_id;sensor_type;location;lat;lon;timestamp;P1;durP1;ratioP1;P2;durP2;ratioP2
1577;SDS011;57623;53.608;10.004;2023-11-21T00:00:03;12.80;;;9.60;;
1577;SDS011;57623;53.608;10.004;2023-11-21T00:02:38;13.90;;;9.80;;
1577;SDS011;57623;53.608;10.004;2023-11-21T00:05:08;13.40;;;9.77;;
1577;SDS011;57623;53.608;10.004;2023-11-21T00:07:38;12.20;;;10.20;;
1577;SDS011;57623;53.608;10.004;2023-11-21T00:10:07;11.60;;;9.30;;
1577;SDS011;57623;53.608;10.004;2023-11-21T00:12:37;11.60;;;9.97;;
1577;SDS011;57623;53.608;10.004;2023-11-21T00:15:08;14.90;;;11.10;;
1577;SDS011;57623;53.608;10.004;2023-11-21T00:17:38;14.20;;;10.10;;
1577;SDS011;57623;53.608;10.004;2023-11-21T00:20:06;13.93;;;10.37;;
1577;SDS011;57623;53.608;10.004;2023-11-21T00:22:39;14.13;;;10.50;;
1577;SDS011;57623;53.608;10.004;2023-11-21T00:25:08;15.57;;;11.40;;
1577;SDS011;57623;53.608;10.004;2023-11-21T00:27:36;14.07;;;11.77;;
1577;SDS011;57623;53.608;10.004;2023-11-21T00:30:05;16.80;;;12.20;;
1577;SDS011;57623;53.608;10.004;2023-11-21T00:32:35;17.20;;;13.60;;
1577;SDS011;57623;53.608;10.004;2023-11-21T00:50:15;12.13;;;8.97;;
1577;SDS011;57623;53.608;10.004;2023-11-21T00:52:43;11.50;;;9.30;;
1577;SDS011;57623;53.608;10.004;2023-11-21T00:55:11;11.37;;;9.17;;
1577;SDS011;57623;53.608;10.004;2023-11-21T00:57:39;11.93;;;9.30;;
1577;SDS011;57623;53.608;10.004;2023-11-21T01:00:07;11.73;;;9.30;;
1577;SDS011;57623;53.608;10.004;2023-11-21T01:02:40;14.90;;;9.33;;
1577;SDS011;57623;53.608;10.004;2023-11-21T01:05:09;13.33;;;9.70;;
1577;SDS011;57623;53.608;10.004;2023-11-21T01:07:39;13.20;;;10.27;;
1577;SDS011;57623;53.608;10.004;2023-11-21T01:10:07;15.17;;;10.00;;
1577;SDS011;57623;53.608;10.004;2023-11-21T01:12:36;13.40;;;9.87;;
1577;SDS011;57623;53.608;10.004;2023-11-21T01:15:05;13.13;;;9.50;;
1577;SDS011;57623;53.608;10.004;2023-11-21T01:17:35;12.23;;;9.27;;
1577;SDS011;57623;53.608;10.004;2023-11-21T01:20:03;12.57;;;10.37;;
1577;SDS011;57623;53.608;10.004;2023-11-21T01:22:38;14.07;;;9.27;;
1577;SDS011;57623;53.608;10.004;2023-11-21T01:25:07;13.87;;;10.73;;
1577;SDS011;57623;53.608;10.004;2023-11-21T01:27:37;13.07;;;10.50;;
1577;SDS011;57623;53.608;10.004;2023-11-21T01:30:05;14.60;;;10.90;;
1577;SDS011;57623;53.608;10.004;2023-11-21T01:32:35;13.37;;;10.40;;
1577;SDS011;57623;53.608;10.004;2023-11-21T01:35:04;12.80;;;10.37;;
1577;SDS011;57623;53.608;10.004;2023-11-21T01:37:32;13.10;;;10.27;;
1577;SDS011;57623;53.608;10.004;2023-11-21T01:40:02;14.40;;;10.20;;
1577;SDS011;57623;53.608;10.004;2023-11-21T01:42:34;14.43;;;10.93;;
1577;SDS011;57623;53.608;10.004;2023-11-21T01:45:02;12.93;;;9.97;;
1577;SDS011;57623;53.608;10.004;2023-11-21T01:47:31;11.27;;;9.97;;
1577;SDS011;57623;53.608;10.004;2023-11-21T01:50:00;12.87;;;10.27;;
1577;SDS011;57623;53.608;10.004;2023-11-21T02:07:20;10.30;;;7.30;;
1577;SDS011;57623;53.608;10.004;2023-11-21T02:09:49;8.80;;;7.90;;
1577;SDS011;57623;53.608;10.004;2023-11-21T02:12:17;8.47;;;7.50;;
1577;SDS011;57623;53.608;10.004;2023-11-21T02:14:44;8.90;;;7.63;;
1577;SDS011;57623;53.608;10.004;2023-11-21T02:17:13;9.20;;;7.20;;
1577;SDS011;57623;53.608;10.004;2023-11-21T02:19:41;8.73;;;6.60;;
1577;SDS011;57623;53.608;10.004;2023-11-21T02:22:09;7.83;;;6.90;;
1577;SDS011;57623;53.608;10.004;2023-11-21T02:24:39;7.33;;;6.40;;
1577;SDS011;57623;53.608;10.004;2023-11-21T02:27:10;8.17;;;6.73;;
1577;SDS011;57623;53.608;10.004;2023-11-21T02:29:39;8.07;;;7.13;;
1577;SDS011;57623;53.608;10.004;2023-11-21T02:32:07;7.60;;;6.80;;
1577;SDS011;57623;53.608;10.004;2023-11-21T02:34:37;7.57;;;6.40;;
1577;SDS011;57623;53.608;10.004;2023-11-21T02:40:58;9.07;;;7.27;;
1577;SDS011;57623;53.608;10.004;2023-11-21T02:43:26;5.97;;;5.47;;
1577;SDS011;57623;53.608;10.004;2023-11-21T02:45:54;7.77;;;6.63;;
1577;SDS011;57623;53.608;10.004;2023-11-21T02:48:22;6.90;;;6.20;;
1577;SDS011;57623;53.608;10.004;2023-11-21T02:50:52;7.47;;;6.20;;
1577;SDS011;57623;53.608;10.004;2023-11-21T02:53:20;8.90;;;6.77;;
1577;SDS011;57623;53.608;10.004;2023-11-21T02:55:48;6.80;;;6.00;;
1577;SDS011;57623;53.608;10.004;2023-11-21T02:58:17;7.73;;;6.17;;
1577;SDS011;57623;53.608;10.004;2023-11-21T03:00:45;9.90;;;6.63;;
1577;SDS011;57623;53.608;10.004;2023-11-21T03:03:13;7.87;;;6.80;;
1577;SDS011;57623;53.608;10.004;2023-11-21T03:05:41;7.17;;;5.90;;
1577;SDS011;57623;53.608;10.004;2023-11-21T03:08:09;6.70;;;6.10;;
1577;SDS011;57623;53.608;10.004;2023-11-21T03:10:37;14.13;;;6.90;;
1577;SDS011;57623;53.608;10.004;2023-11-21T03:13:05;7.60;;;6.57;;
1577;SDS011;57623;53.608;10.004;2023-11-21T03:15:34;7.83;;;7.03;;
1577;SDS011;57623;53.608;10.004;2023-11-21T03:18:02;7.40;;;6.60;;
1577;SDS011;57623;53.608;10.004;2023-11-21T03:20:31;8.73;;;7.30;;
1577;SDS011;57623;53.608;10.004;2023-11-21T03:23:01;9.40;;;7.27;;
1577;SDS011;57623;53.608;10.004;2023-11-21T03:25:29;7.70;;;6.63;;
1577;SDS011;57623;53.608;10.004;2023-11-21T03:27:57;8.03;;;7.03;;
1577;SDS011;57623;53.608;10.004;2023-11-21T03:30:25;7.50;;;6.70;;
1577;SDS011;57623;53.608;10.004;2023-11-21T03:32:55;8.00;;;6.83;;
1577;SDS011;57623;53.608;10.004;2023-11-21T03:35:23;8.10;;;7.17;;
1577;SDS011;57623;53.608;10.004;2023-11-21T03:37:51;8.67;;;7.50;;
1577;SDS011;57623;53.608;10.004;2023-11-21T03:40:19;7.80;;;6.60;;
1577;SDS011;57623;53.608;10.004;2023-11-21T03:42:47;8.40;;;7.50;;
1577;SDS011;57623;53.608;10.004;2023-11-21T03:45:15;9.00;;;7.20;;
1577;SDS011;57623;53.608;10.004;2023-11-21T03:47:43;9.03;;;7.67;;
1577;SDS011;57623;53.608;10.004;2023-11-21T03:50:12;8.37;;;7.53;;
1577;SDS011;57623;53.608;10.004;2023-11-21T03:52:41;9.40;;;7.43;;
1577;SDS011;57623;53.608;10.004;2023-11-21T03:55:09;8.90;;;7.40;;
1577;SDS011;57623;53.608;10.004;2023-11-21T03:57:37;10.30;;;7.73;;
1577;SDS011;57623;53.608;10.004;2023-11-21T04:00:06;10.63;;;7.70;;
1577;SDS011;57623;53.608;10.004;2023-11-21T04:02:36;7.67;;;6.87;;
1577;SDS011;57623;53.608;10.004;2023-11-21T04:05:04;8.43;;;7.53;;
1577;SDS011;57623;53.608;10.004;2023-11-21T04:07:34;7.73;;;6.93;;
1577;SDS011;57623;53.608;10.004;2023-11-21T04:10:04;8.90;;;7.97;;
1577;SDS011;57623;53.608;10.004;2023-11-21T04:12:35;8.70;;;7.80;;
1577;SDS011;57623;53.608;10.004;2023-11-21T04:15:03;9.23;;;8.00;;
1577;SDS011;57623;53.608;10.004;2023-11-21T04:17:31;8.10;;;7.23;;
1577;SDS011;57623;53.608;10.004;2023-11-21T04:19:59;9.57;;;8.13;;
1577;SDS011;57623;53.608;10.004;2023-11-21T04:22:27;9.57;;;7.93;;
1577;SDS011;57623;53.608;10.004;2023-11-21T04:24:56;8.80;;;7.77;;
1577;SDS011;57623;53.608;10.004;2023-11-21T04:27:24;9.50;;;7.87;;
1577;SDS011;57623;53.608;10.004;2023-11-21T04:29:52;8.83;;;7.93;;
1577;SDS011;57623;53.608;10.004;2023-11-21T04:32:20;9.67;;;8.10;;
1577;SDS011;57623;53.608;10.004;2023-11-21T04:34:48;8.80;;;7.87;;
1577;SDS011;57623;53.608;10.004;2023-11-21T04:37:16;8.40;;;7.53;;
1577;SDS011;57623;53.608;10.004;2023-11-21T04:39:44;9.30;;;7.90;;
1577;SDS011;57623;53.608;10.004;2023-11-21T04:42:13;9.40;;;7.93;;
1577;SDS011;57623;53.608;10.004;2023-11-21T04:44:41;8.80;;;7.60;;
1577;SDS011;57623;53.608;10.004;2023-11-21T04:47:10;8.57;;;7.50;;
1577;SDS011;57623;53.608;10.004;2023-11-21T04:49:41;8.57;;;7.70;;
1577;SDS011;57623;53.608;10.004;2023-11-21T04:52:09;8.83;;;7.40;;
1577;SDS011;57623;53.608;10.004;2023-11-21T04:54:37;11.37;;;8.70;;
1577;SDS011;57623;53.608;10.004;2023-11-21T04:57:06;8.70;;;7.80;;
1577;SDS011;57623;53.608;10.004;2023-11-21T04:59:36;9.37;;;8.37;;
1577;SDS011;57623;53.608;10.004;2023-11-21T05:02:04;9.07;;;8.10;;
1577;SDS011;57623;53.608;10.004;2023-11-21T05:04:32;10.63;;;8.30;;
1577;SDS011;57623;53.608;10.004;2023-11-21T05:07:02;8.80;;;7.90;;
1577;SDS011;57623;53.608;10.004;2023-11-21T05:09:30;9.60;;;7.57;;
1577;SDS011;57623;53.608;10.004;2023-11-21T05:11:58;9.33;;;8.27;;
1577;SDS011;57623;53.608;10.004;2023-11-21T05:14:27;9.63;;;8.63;;
1577;SDS011;57623;53.608;10.004;2023-11-21T05:16:56;9.17;;;8.20;;
1577;SDS011;57623;53.608;10.004;2023-11-21T05:19:25;10.40;;;8.40;;
1577;SDS011;57623;53.608;10.004;2023-11-21T05:21:53;8.60;;;7.70;;
1577;SDS011;57623;53.608;10.004;2023-11-21T05:24:21;8.47;;;7.67;;
1577;SDS011;57623;53.608;10.004;2023-11-21T05:26:49;8.90;;;7.63;;
1577;SDS011;57623;53.608;10.004;2023-11-21T05:29:17;8.43;;;7.53;;
1577;SDS011;57623;53.608;10.004;2023-11-21T05:31:45;9.70;;;8.27;;
1577;SDS011;57623;53.608;10.004;2023-11-21T05:34:14;8.97;;;7.83;;
1577;SDS011;57623;53.608;10.004;2023-11-21T05:36:44;10.47;;;7.47;;
1577;SDS011;57623;53.608;10.004;2023-11-21T05:39:13;9.33;;;8.43;;
1577;SDS011;57623;53.608;10.004;2023-11-21T05:41:43;9.03;;;7.60;;
1577;SDS011;57623;53.608;10.004;2023-11-21T05:44:15;8.03;;;7.23;;
1577;SDS011;57623;53.608;10.004;2023-11-21T05:46:43;8.90;;;7.53;;
1577;SDS011;57623;53.608;10.004;2023-11-21T05:49:11;8.40;;;7.60;;
1577;SDS011;57623;53.608;10.004;2023-11-21T05:51:40;10.03;;;8.30;;
1577;SDS011;57623;53.608;10.004;2023-11-21T05:54:08;9.53;;;8.30;;
1577;SDS011;57623;53.608;10.004;2023-11-21T05:56:36;9.70;;;8.80;;
1577;SDS011;57623;53.608;10.004;2023-11-21T05:59:04;8.30;;;7.50;;
1577;SDS011;57623;53.608;10.004;2023-11-21T06:01:32;8.07;;;7.13;;
1577;SDS011;57623;53.608;10.004;2023-11-21T06:04:00;9.60;;;8.60;;
1577;SDS011;57623;53.608;10.004;2023-11-21T06:06:30;10.63;;;8.13;;
1577;SDS011;57623;53.608;10.004;2023-11-21T06:08:59;9.00;;;8.10;;
1577;SDS011;57623;53.608;10.004;2023-11-21T06:11:27;10.10;;;7.90;;
1577;SDS011;57623;53.608;10.004;2023-11-21T06:13:55;8.47;;;7.57;;
1577;SDS011;57623;53.608;10.004;2023-11-21T06:16:23;7.87;;;7.10;;
1577;SDS011;57623;53.608;10.004;2023-11-21T06:18:51;9.00;;;7.87;;
1577;SDS011;57623;53.608;10.004;2023-11-21T06:21:19;9.20;;;8.07;;
1577;SDS011;57623;53.608;10.004;2023-11-21T06:23:47;8.63;;;7.70;;
1577;SDS011;57623;53.608;10.004;2023-11-21T06:26:20;9.90;;;7.90;;
1577;SDS011;57623;53.608;10.004;2023-11-21T06:28:48;9.40;;;8.50;;
1577;SDS011;57623;53.608;10.004;2023-11-21T06:31:17;8.83;;;7.93;;
1577;SDS011;57623;53.608;10.004;2023-11-21T06:33:45;8.63;;;7.73;;
1577;SDS011;57623;53.608;10.004;2023-11-21T06:36:13;10.97;;;8.90;;
1577;SDS011;57623;53.608;10.004;2023-11-21T06:38:41;8.83;;;7.70;;
1577;SDS011;57623;53.608;10.004;2023-11-21T06:41:10;9.03;;;8.10;;
1577;SDS011;57623;53.608;10.004;2023-11-21T06:43:42;9.23;;;8.23;;
1577;SDS011;57623;53.608;10.004;2023-11-21T06:46:13;9.73;;;8.70;;
1577;SDS011;57623;53.608;10.004;2023-11-21T06:48:42;9.33;;;8.30;;
1577;SDS011;57623;53.608;10.004;2023-11-21T06:51:11;11.90;;;9.23;;
1577;SDS011;57623;53.608;10.004;2023-11-21T06:53:39;9.73;;;7.57;;
1577;SDS011;57623;53.608;10.004;2023-11-21T06:56:14;8.57;;;7.67;;
1577;SDS011;57623;53.608;10.004;2023-11-21T06:58:45;8.77;;;7.97;;
1577;SDS011;57623;53.608;10.004;2023-11-21T07:01:13;10.00;;;8.90;;
1577;SDS011;57623;53.608;10.004;2023-11-21T07:03:41;9.50;;;8.30;;
1577;SDS011;57623;53.608;10.004;2023-11-21T07:06:09;9.70;;;7.70;;
1577;SDS011;57623;53.608;10.004;2023-11-21T07:08:37;8.70;;;7.73;;
1577;SDS011;57623;53.608;10.004;2023-11-21T07:11:05;12.00;;;8.37;;
1577;SDS011;57623;53.608;10.004;2023-11-21T07:13:33;11.20;;;9.30;;
1577;SDS011;57623;53.608;10.004;2023-11-21T07:16:03;9.03;;;7.90;;
1577;SDS011;57623;53.608;10.004;2023-11-21T07:18:31;9.43;;;8.03;;
1577;SDS011;57623;53.608;10.004;2023-11-21T07:20:59;9.67;;;8.67;;
1577;SDS011;57623;53.608;10.004;2023-11-21T07:23:28;9.60;;;8.47;;
1577;SDS011;57623;53.608;10.004;2023-11-21T07:25:56;9.87;;;8.90;;
1577;SDS011;57623;53.608;10.004;2023-11-21T07:28:24;9.60;;;8.43;;
1577;SDS011;57623;53.608;10.004;2023-11-21T07:30:52;9.37;;;8.33;;
1577;SDS011;57623;53.608;10.004;2023-11-21T07:33:22;8.70;;;7.80;;
1577;SDS011;57623;53.608;10.004;2023-11-21T07:35:50;10.60;;;8.20;;
1577;SDS011;57623;53.608;10.004;2023-11-21T07:38:18;10.27;;;9.27;;
1577;SDS011;57623;53.608;10.004;2023-11-21T07:40:46;10.03;;;8.20;;
1577;SDS011;57623;53.608;10.004;2023-11-21T07:43:13;9.77;;;8.07;;
1577;SDS011;57623;53.608;10.004;2023-11-21T07:45:42;8.40;;;7.60;;
1577;SDS011;57623;53.608;10.004;2023-11-21T07:48:12;9.10;;;8.07;;
1577;SDS011;57623;53.608;10.004;2023-11-21T07:50:42;8.93;;;8.03;;
1577;SDS011;57623;53.608;10.004;2023-11-21T07:53:10;7.50;;;6.73;;
1577;SDS011;57623;53.608;10.004;2023-11-21T07:55:38;9.10;;;8.20;;
1577;SDS011;57623;53.608;10.004;2023-11-21T07:58:05;9.10;;;7.60;;
1577;SDS011;57623;53.608;10.004;2023-11-21T08:00:33;7.97;;;7.17;;
1577;SDS011;57623;53.608;10.004;2023-11-21T08:03:01;7.50;;;6.70;;
1577;SDS011;57623;53.608;10.004;2023-11-21T08:05:30;10.33;;;7.50;;
1577;SDS011;57623;53.608;10.004;2023-11-21T08:08:04;7.30;;;6.37;;
1577;SDS011;57623;53.608;10.004;2023-11-21T08:10:32;7.50;;;6.70;;
1577;SDS011;57623;53.608;10.004;2023-11-21T08:13:02;8.00;;;6.77;;
1577;SDS011;57623;53.608;10.004;2023-11-21T08:15:30;7.83;;;6.83;;
1577;SDS011;57623;53.608;10.004;2023-11-21T08:17:58;7.20;;;6.50;;
1577;SDS011;57623;53.608;10.004;2023-11-21T08:20:26;6.93;;;6.20;;
1577;SDS011;57623;53.608;10.004;2023-11-21T08:22:55;7.17;;;6.50;;
1577;SDS011;57623;53.608;10.004;2023-11-21T08:25:25;7.20;;;6.20;;
1577;SDS011;57623;53.608;10.004;2023-11-21T08:27:53;6.43;;;5.83;;
1577;SDS011;57623;53.608;10.004;2023-11-21T08:30:21;7.90;;;6.30;;
1577;SDS011;57623;53.608;10.004;2023-11-21T08:32:50;7.40;;;6.60;;
1577;SDS011;57623;53.608;10.004;2023-11-21T08:35:20;6.20;;;5.57;;
1577;SDS011;57623;53.608;10.004;2023-11-21T08:37:48;6.20;;;5.60;;
1577;SDS011;57623;53.608;10.004;2023-11-21T08:40:19;6.53;;;5.93;;
1577;SDS011;57623;53.608;10.004;2023-11-21T08:42:48;6.73;;;5.33;;
1577;SDS011;57623;53.608;10.004;2023-11-21T08:45:18;8.47;;;5.80;;
1577;SDS011;57623;53.608;10.004;2023-11-21T08:47:47;5.50;;;5.00;;
1577;SDS011;57623;53.608;10.004;2023-11-21T08:50:15;6.23;;;5.57;;
1577;SDS011;57623;53.608;10.004;2023-11-21T08:52:44;6.53;;;5.63;;
1577;SDS011;57623;53.608;10.004;2023-11-21T08:55:13;6.37;;;5.77;;
1577;SDS011;57623;53.608;10.004;2023-11-21T08:57:43;8.53;;;5.33;;
1577;SDS011;57623;53.608;10.004;2023-11-21T09:00:13;7.13;;;5.93;;
1577;SDS011;57623;53.608;10.004;2023-11-21T09:02:43;6.17;;;5.57;;
1577;SDS011;57623;53.608;10.004;2023-11-21T09:05:12;7.00;;;6.00;;
1577;SDS011;57623;53.608;10.004;2023-11-21T09:07:42;6.90;;;6.30;;
1577;SDS011;57623;53.608;10.004;2023-11-21T09:10:12;7.77;;;6.93;;
1577;SDS011;57623;53.608;10.004;2023-11-21T09:12:41;7.97;;;6.73;;
1577;SDS011;57623;53.608;10.004;2023-11-21T09:15:09;7.90;;;7.10;;
1577;SDS011;57623;53.608;10.004;2023-11-21T09:17:39;7.00;;;6.40;;
1577;SDS011;57623;53.608;10.004;2023-11-21T09:20:08;7.73;;;6.57;;
1577;SDS011;57623;53.608;10.004;2023-11-21T09:22:37;7.13;;;6.20;;
1577;SDS011;57623;53.608;10.004;2023-11-21T09:25:06;7.90;;;7.07;;
1577;SDS011;57623;53.608;10.004;2023-11-21T09:27:35;7.00;;;6.30;;
1577;SDS011;57623;53.608;10.004;2023-11-21T09:30:03;5.70;;;5.10;;
1577;SDS011;57623;53.608;10.004;2023-11-21T09:32:35;7.33;;;5.83;;
1577;SDS011;57623;53.608;10.004;2023-11-21T09:35:06;6.20;;;5.60;;
1577;SDS011;57623;53.608;10.004;2023-11-21T09:37:35;7.00;;;5.33;;
1577;SDS011;57623;53.608;10.004;2023-11-21T09:40:05;5.83;;;5.13;;
1577;SDS011;57623;53.608;10.004;2023-11-21T09:42:40;5.97;;;5.37;;
1577;SDS011;57623;53.608;10.004;2023-11-21T09:45:14;5.50;;;5.00;;
1577;SDS011;57623;53.608;10.004;2023-11-21T09:47:46;4.43;;;4.13;;
1577;SDS011;57623;53.608;10.004;2023-11-21T09:50:16;4.50;;;4.10;;
1577;SDS011;57623;53.608;10.004;2023-11-21T09:52:49;4.70;;;4.30;;
1577;SDS011;57623;53.608;10.004;2023-11-21T09:55:24;4.93;;;4.43;;
1577;SDS011;57623;53.608;10.004;2023-11-21T09:57:56;4.40;;;4.00;;
1577;SDS011;57623;53.608;10.004;2023-11-21T10:00:24;4.10;;;3.70;;
1577;SDS011;57623;53.608;10.004;2023-11-21T10:02:53;4.40;;;4.00;;
1577;SDS011;57623;53.608;10.004;2023-11-21T10:05:24;4.73;;;4.33;;
1577;SDS011;57623;53.608;10.004;2023-11-21T10:07:55;4.37;;;3.93;;
1577;SDS011;57623;53.608;10.004;2023-11-21T10:10:24;4.40;;;4.00;;
1577;SDS011;57623;53.608;10.004;2023-11-21T10:12:56;4.80;;;4.10;;
1577;SDS011;57623;53.608;10.004;2023-11-21T10:15:29;4.43;;;4.03;;
1577;SDS011;57623;53.608;10.004;2023-11-21T10:18:02;5.00;;;4.50;;
1577;SDS011;57623;53.608;10.004;2023-11-21T10:20:33;4.43;;;4.03;;
1577;SDS011;57623;53.608;10.004;2023-11-21T10:23:04;4.20;;;3.90;;
1577;SDS011;57623;53.608;10.004;2023-11-21T10:25:34;4.00;;;3.70;;
1577;SDS011;57623;53.608;10.004;2023-11-21T10:28:03;3.90;;;3.60;;
1577;SDS011;57623;53.608;10.004;2023-11-21T10:30:32;5.77;;;4.80;;
1577;SDS011;57623;53.608;10.004;2023-11-21T10:33:03;4.67;;;4.17;;
1577;SDS011;57623;53.608;10.004;2023-11-21T10:35:40;5.50;;;4.57;;
1577;SDS011;57623;53.608;10.004;2023-11-21T10:38:13;5.20;;;4.77;;
1577;SDS011;57623;53.608;10.004;2023-11-21T10:40:41;4.93;;;4.40;;
1577;SDS011;57623;53.608;10.004;2023-11-21T10:43:11;4.57;;;4.13;;
1577;SDS011;57623;53.608;10.004;2023-11-21T10:45:39;5.03;;;4.63;;
1577;SDS011;57623;53.608;10.004;2023-11-21T10:48:08;4.03;;;3.63;;
1577;SDS011;57623;53.608;10.004;2023-11-21T10:50:38;5.50;;;5.00;;
1577;SDS011;57623;53.608;10.004;2023-11-21T10:53:07;6.47;;;4.47;;
1577;SDS011;57623;53.608;10.004;2023-11-21T10:55:35;3.90;;;3.60;;
1577;SDS011;57623;53.608;10.004;2023-11-21T10:58:04;4.30;;;3.90;;
1577;SDS011;57623;53.608;10.004;2023-11-21T11:00:32;4.63;;;4.23;;
1577;SDS011;57623;53.608;10.004;2023-11-21T11:03:01;3.60;;;3.30;;
1577;SDS011;57623;53.608;10.004;2023-11-21T11:05:31;3.97;;;3.57;;
1577;SDS011;57623;53.608;10.004;2023-11-21T11:07:59;4.20;;;3.80;;
1577;SDS011;57623;53.608;10.004;2023-11-21T11:10:32;4.30;;;3.90;;
1577;SDS011;57623;53.608;10.004;2023-11-21T11:13:01;3.87;;;3.57;;
1577;SDS011;57623;53.608;10.004;2023-11-21T11:15:29;4.43;;;3.90;;
1577;SDS011;57623;53.608;10.004;2023-11-21T11:17:57;4.40;;;3.87;;
1577;SDS011;57623;53.608;10.004;2023-11-21T11:20:28;5.13;;;4.73;;
1577;SDS011;57623;53.608;10.004;2023-11-21T11:23:07;4.30;;;3.90;;
1577;SDS011;57623;53.608;10.004;2023-11-21T11:25:50;4.10;;;3.80;;
1577;SDS011;57623;53.608;10.004;2023-11-21T11:28:31;4.43;;;4.03;;
1577;SDS011;57623;53.608;10.004;2023-11-21T11:31:14;4.33;;;3.93;;
1577;SDS011;57623;53.608;10.004;2023-11-21T11:33:53;4.60;;;4.20;;
1577;SDS011;57623;53.608;10.004;2023-11-21T11:36:25;4.57;;;4.00;;
1577;SDS011;57623;53.608;10.004;2023-11-21T11:38:56;4.70;;;4.30;;
1577;SDS011;57623;53.608;10.004;2023-11-21T11:41:26;4.30;;;3.63;;
1577;SDS011;57623;53.608;10.004;2023-11-21T11:43:56;3.77;;;3.47;;
1577;SDS011;57623;53.608;10.004;2023-11-21T11:46:39;4.30;;;3.60;;
1577;SDS011;57623;53.608;10.004;2023-11-21T11:49:09;5.80;;;5.20;;
1577;SDS011;57623;53.608;10.004;2023-11-21T11:51:37;13.70;;;10.37;;
1577;SDS011;57623;53.608;10.004;2023-11-21T11:54:05;4.27;;;3.83;;
1577;SDS011;57623;53.608;10.004;2023-11-21T11:56:35;4.73;;;3.83;;
1577;SDS011;57623;53.608;10.004;2023-11-21T11:59:06;4.70;;;4.30;;
1577;SDS011;57623;53.608;10.004;2023-11-21T12:01:36;4.53;;;4.00;;
1577;SDS011;57623;53.608;10.004;2023-11-21T12:04:23;4.63;;;4.03;;
1577;SDS011;57623;53.608;10.004;2023-11-21T12:07:01;4.17;;;3.87;;
1577;SDS011;57623;53.608;10.004;2023-11-21T12:09:30;4.43;;;4.00;;
1577;SDS011;57623;53.608;10.004;2023-11-21T12:12:01;5.93;;;4.53;;
1577;SDS011;57623;53.608;10.004;2023-11-21T12:14:30;4.53;;;4.10;;
1577;SDS011;57623;53.608;10.004;2023-11-21T12:16:58;3.50;;;3.20;;
1577;SDS011;57623;53.608;10.004;2023-11-21T12:19:27;4.13;;;3.40;;
1577;SDS011;57623;53.608;10.004;2023-11-21T12:21:55;3.90;;;3.37;;
1577;SDS011;57623;53.608;10.004;2023-11-21T12:24:23;3.87;;;3.50;;
1577;SDS011;57623;53.608;10.004;2023-11-21T12:26:52;4.60;;;4.03;;
1577;SDS011;57623;53.608;10.004;2023-11-21T12:29:21;4.40;;;4.00;;
1577;SDS011;57623;53.608;10.004;2023-11-21T12:31:49;4.00;;;3.70;;
1577;SDS011;57623;53.608;10.004;2023-11-21T12:34:17;3.90;;;3.60;;
1577;SDS011;57623;53.608;10.004;2023-11-21T12:36:45;4.40;;;4.03;;
1577;SDS011;57623;53.608;10.004;2023-11-21T12:39:15;4.70;;;4.10;;
1577;SDS011;57623;53.608;10.004;2023-11-21T12:41:43;4.17;;;3.83;;
1577;SDS011;57623;53.608;10.004;2023-11-21T12:44:12;4.40;;;4.00;;
1577;SDS011;57623;53.608;10.004;2023-11-21T12:46:43;4.13;;;3.73;;
1577;SDS011;57623;53.608;10.004;2023-11-21T12:49:12;4.30;;;3.90;;
1577;SDS011;57623;53.608;10.004;2023-11-21T12:51:45;3.90;;;3.57;;
1577;SDS011;57623;53.608;10.004;2023-11-21T12:54:13;3.90;;;3.60;;
1577;SDS011;57623;53.608;10.004;2023-11-21T12:56:44;3.60;;;3.30;;
1577;SDS011;57623;53.608;10.004;2023-11-21T12:59:15;4.80;;;3.70;;
1577;SDS011;57623;53.608;10.004;2023-11-21T13:01:46;4.80;;;3.90;;
1577;SDS011;57623;53.608;10.004;2023-11-21T13:04:20;4.00;;;3.67;;
1577;SDS011;57623;53.608;10.004;2023-11-21T13:07:02;3.90;;;3.60;;
1577;SDS011;57623;53.608;10.004;2023-11-21T13:09:32;3.80;;;3.47;;
1577;SDS011;57623;53.608;10.004;2023-11-21T13:12:01;3.70;;;3.40;;
1577;SDS011;57623;53.608;10.004;2023-11-21T13:14:30;6.07;;;3.80;;
1577;SDS011;57623;53.608;10.004;2023-11-21T13:17:00;3.73;;;3.43;;
1577;SDS011;57623;53.608;10.004;2023-11-21T13:19:28;4.13;;;3.83;;
1577;SDS011;57623;53.608;10.004;2023-11-21T13:21:57;3.80;;;3.50;;
1577;SDS011;57623;53.608;10.004;2023-11-21T13:24:28;3.80;;;3.50;;
1577;SDS011;57623;53.608;10.004;2023-11-21T13:26:56;5.70;;;4.40;;
1577;SDS011;57623;53.608;10.004;2023-11-21T13:29:24;3.77;;;3.47;;
1577;SDS011;57623;53.608;10.004;2023-11-21T13:31:52;30.43;;;20.87;;
1577;SDS011;57623;53.608;10.004;2023-11-21T13:34:23;6.67;;;5.70;;
1577;SDS011;57623;53.608;10.004;2023-11-21T13:36:54;4.60;;;3.60;;
1577;SDS011;57623;53.608;10.004;2023-11-21T13:39:25;4.10;;;3.70;;
1577;SDS011;57623;53.608;10.004;2023-11-21T13:41:55;4.40;;;3.90;;
1577;SDS011;57623;53.608;10.004;2023-11-21T13:44:23;3.37;;;3.10;;
1577;SDS011;57623;53.608;10.004;2023-11-21T13:47:00;3.80;;;3.50;;
1577;SDS011;57623;53.608;10.004;2023-11-21T13:49:30;3.50;;;3.20;;
1577;SDS011;57623;53.608;10.004;2023-11-21T13:52:07;4.00;;;3.70;;
1577;SDS011;57623;53.608;10.004;2023-11-21T13:54:37;8.50;;;5.97;;
1577;SDS011;57623;53.608;10.004;2023-11-21T13:57:05;11.30;;;8.00;;
1577;SDS011;57623;53.608;10.004;2023-11-21T13:59:33;4.60;;;4.20;;
1577;SDS011;57623;53.608;10.004;2023-11-21T14:02:03;7.10;;;4.53;;
1577;SDS011;57623;53.608;10.004;2023-11-21T14:04:45;4.13;;;3.53;;
1577;SDS011;57623;53.608;10.004;2023-11-21T14:07:23;3.50;;;3.20;;
1577;SDS011;57623;53.608;10.004;2023-11-21T14:09:59;4.03;;;3.70;;
1577;SDS011;57623;53.608;10.004;2023-11-21T14:12:27;4.57;;;3.90;;
1577;SDS011;57623;53.608;10.004;2023-11-21T14:15:03;4.33;;;3.87;;
1577;SDS011;57623;53.608;10.004;2023-11-21T14:17:35;3.87;;;3.57;;
1577;SDS011;57623;53.608;10.004;2023-11-21T14:20:08;3.63;;;3.33;;
1577;SDS011;57623;53.608;10.004;2023-11-21T14:22:42;11.83;;;9.17;;
1577;SDS011;57623;53.608;10.004;2023-11-21T14:25:11;4.90;;;4.10;;
1577;SDS011;57623;53.608;10.004;2023-11-21T14:27:43;4.00;;;3.63;;
1577;SDS011;57623;53.608;10.004;2023-11-21T14:30:11;3.70;;;3.40;;
1577;SDS011;57623;53.608;10.004;2023-11-21T14:32:41;4.83;;;4.23;;
1577;SDS011;57623;53.608;10.004;2023-11-21T14:35:10;3.40;;;3.10;;
1577;SDS011;57623;53.608;10.004;2023-11-21T14:37:38;2.73;;;2.53;;
1577;SDS011;57623;53.608;10.004;2023-11-21T14:40:07;3.00;;;2.70;;
1577;SDS011;57623;53.608;10.004;2023-11-21T14:42:36;4.77;;;3.10;;
1577;SDS011;57623;53.608;10.004;2023-11-21T14:45:06;3.23;;;2.80;;
1577;SDS011;57623;53.608;10.004;2023-11-21T14:47:38;2.50;;;2.30;;
1577;SDS011;57623;53.608;10.004;2023-11-21T14:50:12;3.13;;;2.80;;
1577;SDS011;57623;53.608;10.004;2023-11-21T14:52:57;3.33;;;2.80;;
1577;SDS011;57623;53.608;10.004;2023-11-21T14:55:26;3.53;;;2.87;;
1577;SDS011;57623;53.608;10.004;2023-11-21T14:57:58;3.00;;;2.70;;
1577;SDS011;57623;53.608;10.004;2023-11-21T15:00:30;2.67;;;2.47;;
1577;SDS011;57623;53.608;10.004;2023-11-21T15:03:07;2.67;;;2.37;;
1577;SDS011;57623;53.608;10.004;2023-11-21T15:05:38;3.07;;;2.40;;
1577;SDS011;57623;53.608;10.004;2023-11-21T15:08:06;2.63;;;2.40;;
1577;SDS011;57623;53.608;10.004;2023-11-21T15:10:46;6.00;;;3.93;;
1577;SDS011;57623;53.608;10.004;2023-11-21T15:13:19;5.30;;;4.80;;
1577;SDS011;57623;53.608;10.004;2023-11-21T15:15:48;5.70;;;5.23;;
1577;SDS011;57623;53.608;10.004;2023-11-21T15:18:17;38.47;;;29.80;;
1577;SDS011;57623;53.608;10.004;2023-11-21T15:20:46;21.10;;;13.80;;
1577;SDS011;57623;53.608;10.004;2023-11-21T15:23:14;5.70;;;4.57;;
1577;SDS011;57623;53.608;10.004;2023-11-21T15:25:45;3.10;;;2.80;;
1577;SDS011;57623;53.608;10.004;2023-11-21T15:28:13;3.33;;;2.90;;
1577;SDS011;57623;53.608;10.004;2023-11-21T15:30:43;7.30;;;5.47;;
1577;SDS011;57623;53.608;10.004;2023-11-21T15:33:14;6.57;;;5.87;;